sensor_id;sensor_type;location;lat;lon;timestamp;temperature;humidity
21163;DHT22;10739;52.198;20.908;2023-03-17T00:01:52;0.20;99.90
21163;DHT22;10739;52.198;20.908;2023-03-17T00:04:21;0.10;99.90
21163;DHT22;10739;52.198;20.908;2023-03-17T00:06:49;0.10;99.90
21163;DHT22;10739;52.198;20.908;2023-03-17T00:09:17;0.00;99.90
21163;DHT22;10739;52.198;20.908;2023-03-17T00:11:45;0.00;99.90
21163;DHT22;10739;52.198;20.908;2023-03-17T00:14:11;0.10;99.90
21163;DHT22;10739;52.198;20.908;2023-03-17T00:16:40;0.10;99.90
21163;DHT22;10739;52.198;20.908;2023-03-17T00:19:32;0.10;99.90
21163;DHT22;10739;52.198;20.908;2023-03-17T00:22:00;0.20;99.90
21163;DHT22;10739;52.198;20.908;2023-03-17T00:24:28;0.20;99.90
21163;DHT22;10739;52.198;20.908;2023-03-17T00:26:54;0.20;99.90
21163;DHT22;10739;52.198;20.908;2023-03-17T00:29:21;0.10;99.90
21163;DHT22;10739;52.198;20.908;2023-03-17T00:31:48;0.10;99.90
21163;DHT22;10739;52.198;20.908;2023-03-17T00:34:17;0.10;99.90
21163;DHT22;10739;52.198;20.908;2023-03-17T00:36:48;0.10;99.90
21163;DHT22;10739;52.198;20.908;2023-03-17T00:39:16;0.00;99.90
21163;DHT22;10739;52.198;20.908;2023-03-17T00:41:43;0.00;99.90
21163;DHT22;10739;52.198;20.908;2023-03-17T00:44:09;0.00;99.90
21163;DHT22;10739;52.198;20.908;2023-03-17T00:46:36;0.00;99.90
21163;DHT22;10739;52.198;20.908;2023-03-17T00:49:19;-0.10;99.90
21163;DHT22;10739;52.198;20.908;2023-03-17T00:51:47;-0.10;99.90
21163;DHT22;10739;52.198;20.908;2023-03-17T00:54:15;-0.10;99.90
21163;DHT22;10739;52.198;20.908;2023-03-17T00:56:43;-0.10;99.90
21163;DHT22;10739;52.198;20.908;2023-03-17T00:59:36;-0.40;99.90
21163;DHT22;10739;52.198;20.908;2023-03-17T01:02:05;-0.30;99.90
21163;DHT22;10739;52.198;20.908;2023-03-17T01:04:34;-0.30;99.90
21163;DHT22;10739;52.198;20.908;2023-03-17T01:07:00;-0.40;99.90
21163;DHT22;10739;52.198;20.908;2023-03-17T01:09:27;-0.40;99.90
21163;DHT22;10739;52.198;20.908;2023-03-17T01:11:55;-0.50;99.90
21163;DHT22;10739;52.198;20.908;2023-03-17T01:14:22;0.00;99.90
21163;DHT22;10739;52.198;20.908;2023-03-17T01:16:49;-0.40;99.90
21163;DHT22;10739;52.198;20.908;2023-03-17T01:19:18;-0.50;99.90
21163;DHT22;10739;52.198;20.908;2023-03-17T01:21:44;-0.50;99.90
21163;DHT22;10739;52.198;20.908;2023-03-17T01:24:11;-0.60;99.90
21163;DHT22;10739;52.198;20.908;2023-03-17T01:26:37;-0.60;99.90
21163;DHT22;10739;52.198;20.908;2023-03-17T01:29:05;-0.70;99.90
21163;DHT22;10739;52.198;20.908;2023-03-17T01:31:33;-0.80;99.90
21163;DHT22;10739;52.198;20.908;2023-03-17T01:33:59;-0.80;99.90
21163;DHT22;10739;52.198;20.908;2023-03-17T01:36:26;-0.90;99.90
21163;DHT22;10739;52.198;20.908;2023-03-17T01:38:52;-0.90;99.90
21163;DHT22;10739;52.198;20.908;2023-03-17T01:41:18;-0.90;99.90
21163;DHT22;10739;52.198;20.908;2023-03-17T01:43:45;-0.90;99.90
21163;DHT22;10739;52.198;20.908;2023-03-17T01:49:17;-0.80;99.90
21163;DHT22;10739;52.198;20.908;2023-03-17T01:52:00;-0.80;99.90
21163;DHT22;10739;52.198;20.908;2023-03-17T01:57:09;-0.80;99.90
21163;DHT22;10739;52.198;20.908;2023-03-17T01:59:46;-0.80;99.90
21163;DHT22;10739;52.198;20.908;2023-03-17T02:02:31;-0.90;99.90
21163;DHT22;10739;52.198;20.908;2023-03-17T02:05:06;-0.90;99.90
21163;DHT22;10739;52.198;20.908;2023-03-17T02:07:35;-0.90;99.90
21163;DHT22;10739;52.198;20.908;2023-03-17T02:10:04;-0.90;99.90
21163;DHT22;10739;52.198;20.908;2023-03-17T02:12:33;-1.00;99.90
21163;DHT22;10739;52.198;20.908;2023-03-17T02:15:01;-1.00;99.90
21163;DHT22;10739;52.198;20.908;2023-03-17T02:17:28;-1.00;99.90
21163;DHT22;10739;52.198;20.908;2023-03-17T02:19:55;-1.00;99.90
21163;DHT22;10739;52.198;20.908;2023-03-17T02:22:21;-1.10;99.90
21163;DHT22;10739;52.198;20.908;2023-03-17T02:24:56;-1.00;99.90
21163;DHT22;10739;52.198;20.908;2023-03-17T02:27:34;-1.00;99.90
21163;DHT22;10739;52.198;20.908;2023-03-17T02:30:05;-1.10;99.90
21163;DHT22;10739;52.198;20.908;2023-03-17T02:32:37;-1.10;99.90
21163;DHT22;10739;52.198;20.908;2023-03-17T02:35:04;-1.10;99.90
21163;DHT22;10739;52.198;20.908;2023-03-17T02:37:32;-1.20;99.90
21163;DHT22;10739;52.198;20.908;2023-03-17T02:39:58;-1.20;99.90
21163;DHT22;10739;52.198;20.908;2023-03-17T02:42:27;-1.20;99.90
21163;DHT22;10739;52.198;20.908;2023-03-17T02:44:53;-1.20;99.90
21163;DHT22;10739;52.198;20.908;2023-03-17T02:47:20;-1.20;99.90
21163;DHT22;10739;52.198;20.908;2023-03-17T02:49:46;-1.20;99.90
21163;DHT22;10739;52.198;20.908;2023-03-17T02:52:13;-1.20;99.90
21163;DHT22;10739;52.198;20.908;2023-03-17T02:54:40;-1.30;99.90
21163;DHT22;10739;52.198;20.908;2023-03-17T02:57:07;-1.30;99.90
21163;DHT22;10739;52.198;20.908;2023-03-17T02:59:35;-1.20;99.90
21163;DHT22;10739;52.198;20.908;2023-03-17T03:02:02;-1.20;99.90
21163;DHT22;10739;52.198;20.908;2023-03-17T03:04:29;-1.20;99.90
21163;DHT22;10739;52.198;20.908;2023-03-17T03:06:55;-1.20;99.90
21163;DHT22;10739;52.198;20.908;2023-03-17T03:09:22;-1.20;99.90
21163;DHT22;10739;52.198;20.908;2023-03-17T03:11:49;-1.20;99.90
21163;DHT22;10739;52.198;20.908;2023-03-17T03:14:15;-1.10;99.90
21163;DHT22;10739;52.198;20.908;2023-03-17T03:16:42;-1.20;99.90
21163;DHT22;10739;52.198;20.908;2023-03-17T03:19:08;-1.10;99.90
21163;DHT22;10739;52.198;20.908;2023-03-17T03:21:35;-1.20;99.90
21163;DHT22;10739;52.198;20.908;2023-03-17T03:24:02;-1.20;99.90
21163;DHT22;10739;52.198;20.908;2023-03-17T03:26:29;-1.20;99.90
21163;DHT22;10739;52.198;20.908;2023-03-17T03:28:55;-1.30;99.90
21163;DHT22;10739;52.198;20.908;2023-03-17T03:31:23;-1.20;99.90
21163;DHT22;10739;52.198;20.908;2023-03-17T03:33:49;-1.10;99.90
21163;DHT22;10739;52.198;20.908;2023-03-17T03:36:16;-1.10;99.90
21163;DHT22;10739;52.198;20.908;2023-03-17T03:38:43;-1.10;99.90
21163;DHT22;10739;52.198;20.908;2023-03-17T03:41:09;-1.30;99.90
21163;DHT22;10739;52.198;20.908;2023-03-17T03:43:36;-1.30;99.90
21163;DHT22;10739;52.198;20.908;2023-03-17T03:46:03;-1.40;99.90
21163;DHT22;10739;52.198;20.908;2023-03-17T03:48:30;-1.40;99.90
21163;DHT22;10739;52.198;20.908;2023-03-17T03:50:57;-1.40;99.90
21163;DHT22;10739;52.198;20.908;2023-03-17T03:53:26;-1.50;99.90
21163;DHT22;10739;52.198;20.908;2023-03-17T03:55:54;-1.60;99.90
21163;DHT22;10739;52.198;20.908;2023-03-17T03:58:20;-1.60;99.90
21163;DHT22;10739;52.198;20.908;2023-03-17T04:00:47;-1.60;99.90
21163;DHT22;10739;52.198;20.908;2023-03-17T04:03:13;-1.60;99.90
21163;DHT22;10739;52.198;20.908;2023-03-17T04:05:40;-1.60;99.90
21163;DHT22;10739;52.198;20.908;2023-03-17T04:08:07;-1.70;99.90
21163;DHT22;10739;52.198;20.908;2023-03-17T04:10:33;-1.70;99.90
21163;DHT22;10739;52.198;20.908;2023-03-17T04:13:00;-1.70;99.90
21163;DHT22;10739;52.198;20.908;2023-03-17T04:15:26;-1.80;99.90
21163;DHT22;10739;52.198;20.908;2023-03-17T04:17:52;-1.70;99.90
21163;DHT22;10739;52.198;20.908;2023-03-17T04:20:21;-1.70;99.90
21163;DHT22;10739;52.198;20.908;2023-03-17T04:22:47;-1.70;99.90
21163;DHT22;10739;52.198;20.908;2023-03-17T04:25:14;-1.80;99.90
21163;DHT22;10739;52.198;20.908;2023-03-17T04:27:41;-1.80;99.90
21163;DHT22;10739;52.198;20.908;2023-03-17T04:30:10;-1.70;99.90
21163;DHT22;10739;52.198;20.908;2023-03-17T04:32:41;-1.70;99.90
21163;DHT22;10739;52.198;20.908;2023-03-17T04:35:19;-1.70;99.90
21163;DHT22;10739;52.198;20.908;2023-03-17T04:37:47;-1.80;99.90
21163;DHT22;10739;52.198;20.908;2023-03-17T04:40:15;-1.70;99.90
21163;DHT22;10739;52.198;20.908;2023-03-17T04:42:43;-1.70;99.90
21163;DHT22;10739;52.198;20.908;2023-03-17T04:45:11;-1.70;99.90
21163;DHT22;10739;52.198;20.908;2023-03-17T04:47:40;-1.70;99.90
21163;DHT22;10739;52.198;20.908;2023-03-17T04:50:07;-1.70;99.90
21163;DHT22;10739;52.198;20.908;2023-03-17T04:52:35;-1.70;99.90
21163;DHT22;10739;52.198;20.908;2023-03-17T04:55:01;-1.70;99.90
21163;DHT22;10739;52.198;20.908;2023-03-17T04:57:28;-1.80;99.90
21163;DHT22;10739;52.198;20.908;2023-03-17T04:59:54;-1.80;99.90
21163;DHT22;10739;52.198;20.908;2023-03-17T05:02:22;-1.70;99.90
21163;DHT22;10739;52.198;20.908;2023-03-17T05:04:48;-1.70;99.90
21163;DHT22;10739;52.198;20.908;2023-03-17T05:07:15;-1.70;99.90
21163;DHT22;10739;52.198;20.908;2023-03-17T05:09:41;-1.70;99.90
21163;DHT22;10739;52.198;20.908;2023-03-17T05:12:08;-1.70;99.90
21163;DHT22;10739;52.198;20.908;2023-03-17T05:14:36;-1.60;99.90
21163;DHT22;10739;52.198;20.908;2023-03-17T05:17:02;-1.60;99.90
21163;DHT22;10739;52.198;20.908;2023-03-17T05:19:28;-1.50;99.90
21163;DHT22;10739;52.198;20.908;2023-03-17T05:21:54;-1.50;99.90
21163;DHT22;10739;52.198;20.908;2023-03-17T05:24:21;-1.40;99.90
21163;DHT22;10739;52.198;20.908;2023-03-17T05:26:47;-1.40;99.90
21163;DHT22;10739;52.198;20.908;2023-03-17T05:29:14;-1.30;99.90
21163;DHT22;10739;52.198;20.908;2023-03-17T05:31:40;-1.30;99.90
21163;DHT22;10739;52.198;20.908;2023-03-17T05:34:07;-1.30;99.90
21163;DHT22;10739;52.198;20.908;2023-03-17T05:36:33;-1.30;99.90
21163;DHT22;10739;52.198;20.908;2023-03-17T05:39:01;-1.20;99.90
21163;DHT22;10739;52.198;20.908;2023-03-17T05:41:28;-1.10;99.90
21163;DHT22;10739;52.198;20.908;2023-03-17T05:43:55;-1.00;99.90
21163;DHT22;10739;52.198;20.908;2023-03-17T05:46:22;-1.00;99.90
21163;DHT22;10739;52.198;20.908;2023-03-17T05:48:48;-0.90;99.90
21163;DHT22;10739;52.198;20.908;2023-03-17T05:51:14;-0.80;99.90
21163;DHT22;10739;52.198;20.908;2023-03-17T05:53:41;-0.70;99.90
21163;DHT22;10739;52.198;20.908;2023-03-17T05:56:08;-0.60;99.90
21163;DHT22;10739;52.198;20.908;2023-03-17T05:58:34;-0.50;99.90
21163;DHT22;10739;52.198;20.908;2023-03-17T06:01:00;-0.50;99.90
21163;DHT22;10739;52.198;20.908;2023-03-17T06:03:26;-0.40;99.90
21163;DHT22;10739;52.198;20.908;2023-03-17T06:05:53;-1.10;99.90
21163;DHT22;10739;52.198;20.908;2023-03-17T06:08:19;-0.30;99.90
21163;DHT22;10739;52.198;20.908;2023-03-17T06:10:46;-0.20;99.90
21163;DHT22;10739;52.198;20.908;2023-03-17T06:13:13;-0.10;99.90
21163;DHT22;10739;52.198;20.908;2023-03-17T06:15:40;0.00;99.90
21163;DHT22;10739;52.198;20.908;2023-03-17T06:18:07;0.10;99.90
21163;DHT22;10739;52.198;20.908;2023-03-17T06:20:34;0.20;99.90
21163;DHT22;10739;52.198;20.908;2023-03-17T06:23:01;0.30;99.90
21163;DHT22;10739;52.198;20.908;2023-03-17T06:25:27;0.30;99.90
21163;DHT22;10739;52.198;20.908;2023-03-17T06:27:54;0.30;99.90
21163;DHT22;10739;52.198;20.908;2023-03-17T06:30:21;0.30;99.90
21163;DHT22;10739;52.198;20.908;2023-03-17T06:32:47;0.30;99.90
21163;DHT22;10739;52.198;20.908;2023-03-17T06:35:13;0.40;99.90
21163;DHT22;10739;52.198;20.908;2023-03-17T06:37:40;0.50;99.90
21163;DHT22;10739;52.198;20.908;2023-03-17T06:40:07;0.50;99.90
21163;DHT22;10739;52.198;20.908;2023-03-17T06:42:35;0.70;99.90
21163;DHT22;10739;52.198;20.908;2023-03-17T06:45:02;0.70;99.90
21163;DHT22;10739;52.198;20.908;2023-03-17T06:47:28;0.80;99.90
21163;DHT22;10739;52.198;20.908;2023-03-17T06:49:55;0.90;99.90
21163;DHT22;10739;52.198;20.908;2023-03-17T06:52:21;0.90;99.90
21163;DHT22;10739;52.198;20.908;2023-03-17T06:54:48;1.00;99.90
21163;DHT22;10739;52.198;20.908;2023-03-17T06:57:14;1.10;99.90
21163;DHT22;10739;52.198;20.908;2023-03-17T06:59:40;1.30;99.90
21163;DHT22;10739;52.198;20.908;2023-03-17T07:02:06;2.10;99.90
21163;DHT22;10739;52.198;20.908;2023-03-17T07:04:35;2.90;99.90
21163;DHT22;10739;52.198;20.908;2023-03-17T07:07:04;3.10;99.90
21163;DHT22;10739;52.198;20.908;2023-03-17T07:09:31;3.00;99.90
21163;DHT22;10739;52.198;20.908;2023-03-17T07:12:02;2.90;99.90
21163;DHT22;10739;52.198;20.908;2023-03-17T07:14:33;3.20;99.90
21163;DHT22;10739;52.198;20.908;2023-03-17T07:17:01;3.90;99.90
21163;DHT22;10739;52.198;20.908;2023-03-17T07:19:29;4.40;99.90
21163;DHT22;10739;52.198;20.908;2023-03-17T07:21:55;5.30;99.90
21163;DHT22;10739;52.198;20.908;2023-03-17T07:24:23;5.70;99.90
21163;DHT22;10739;52.198;20.908;2023-03-17T07:26:50;6.00;99.90
21163;DHT22;10739;52.198;20.908;2023-03-17T07:29:16;6.50;99.90
21163;DHT22;10739;52.198;20.908;2023-03-17T07:31:43;6.30;99.90
21163;DHT22;10739;52.198;20.908;2023-03-17T07:34:10;6.50;99.90
21163;DHT22;10739;52.198;20.908;2023-03-17T07:36:37;7.10;99.90
21163;DHT22;10739;52.198;20.908;2023-03-17T07:39:04;7.40;99.90
21163;DHT22;10739;52.198;20.908;2023-03-17T07:41:31;7.50;99.20
21163;DHT22;10739;52.198;20.908;2023-03-17T07:43:57;7.90;98.00
21163;DHT22;10739;52.198;20.908;2023-03-17T07:46:24;7.90;97.70
21163;DHT22;10739;52.198;20.908;2023-03-17T07:48:50;8.20;96.50
21163;DHT22;10739;52.198;20.908;2023-03-17T07:51:19;8.10;94.50
21163;DHT22;10739;52.198;20.908;2023-03-17T07:53:48;7.90;95.30
21163;DHT22;10739;52.198;20.908;2023-03-17T07:56:15;7.90;97.30
21163;DHT22;10739;52.198;20.908;2023-03-17T07:58:42;7.70;96.90
21163;DHT22;10739;52.198;20.908;2023-03-17T08:01:09;7.40;98.60
21163;DHT22;10739;52.198;20.908;2023-03-17T08:03:35;7.20;98.70
21163;DHT22;10739;52.198;20.908;2023-03-17T08:06:02;7.20;98.70
21163;DHT22;10739;52.198;20.908;2023-03-17T08:08:30;7.10;98.70
21163;DHT22;10739;52.198;20.908;2023-03-17T08:11:00;6.90;99.00
21163;DHT22;10739;52.198;20.908;2023-03-17T08:13:29;6.70;99.30
21163;DHT22;10739;52.198;20.908;2023-03-17T08:15:57;6.50;99.80
21163;DHT22;10739;52.198;20.908;2023-03-17T08:18:30;6.50;99.90
21163;DHT22;10739;52.198;20.908;2023-03-17T08:20:56;6.70;99.70
21163;DHT22;10739;52.198;20.908;2023-03-17T08:23:23;6.80;99.10
21163;DHT22;10739;52.198;20.908;2023-03-17T08:25:58;7.30;97.70
21163;DHT22;10739;52.198;20.908;2023-03-17T08:28:26;7.90;95.60
21163;DHT22;10739;52.198;20.908;2023-03-17T08:30:52;8.20;93.40
21163;DHT22;10739;52.198;20.908;2023-03-17T08:33:20;8.30;85.80
21163;DHT22;10739;52.198;20.908;2023-03-17T08:35:46;8.10;83.00
21163;DHT22;10739;52.198;20.908;2023-03-17T08:38:13;8.00;84.20
21163;DHT22;10739;52.198;20.908;2023-03-17T08:40:39;7.50;85.30
21163;DHT22;10739;52.198;20.908;2023-03-17T08:43:06;7.10;89.60
21163;DHT22;10739;52.198;20.908;2023-03-17T08:45:33;7.00;90.90
21163;DHT22;10739;52.198;20.908;2023-03-17T08:47:59;7.10;91.80
21163;DHT22;10739;52.198;20.908;2023-03-17T08:50:26;6.90;89.10
21163;DHT22;10739;52.198;20.908;2023-03-17T08:52:52;6.70;88.70
21163;DHT22;10739;52.198;20.908;2023-03-17T08:55:19;6.60;89.10
21163;DHT22;10739;52.198;20.908;2023-03-17T08:57:46;6.70;90.10
21163;DHT22;10739;52.198;20.908;2023-03-17T09:00:14;6.90;89.70
21163;DHT22;10739;52.198;20.908;2023-03-17T09:02:45;7.40;84.10
21163;DHT22;10739;52.198;20.908;2023-03-17T09:05:13;8.60;82.30
21163;DHT22;10739;52.198;20.908;2023-03-17T09:07:44;9.60;70.30
21163;DHT22;10739;52.198;20.908;2023-03-17T09:10:17;9.90;66.80
21163;DHT22;10739;52.198;20.908;2023-03-17T09:12:48;10.60;65.00
21163;DHT22;10739;52.198;20.908;2023-03-17T09:15:16;11.20;62.10
21163;DHT22;10739;52.198;20.908;2023-03-17T09:17:42;11.40;60.20
21163;DHT22;10739;52.198;20.908;2023-03-17T09:20:10;11.90;57.80
21163;DHT22;10739;52.198;20.908;2023-03-17T09:22:37;12.20;54.50
21163;DHT22;10739;52.198;20.908;2023-03-17T09:25:03;12.00;54.00
21163;DHT22;10739;52.198;20.908;2023-03-17T09:27:30;12.00;53.80
21163;DHT22;10739;52.198;20.908;2023-03-17T09:29:56;11.60;53.50
21163;DHT22;10739;52.198;20.908;2023-03-17T09:32:23;11.80;54.40
21163;DHT22;10739;52.198;20.908;2023-03-17T09:34:49;11.60;54.20
21163;DHT22;10739;52.198;20.908;2023-03-17T09:37:15;11.70;54.00
21163;DHT22;10739;52.198;20.908;2023-03-17T09:39:42;11.50;54.00
21163;DHT22;10739;52.198;20.908;2023-03-17T09:48:14;12.00;51.30
21163;DHT22;10739;52.198;20.908;2023-03-17T09:51:09;12.20;51.50
21163;DHT22;10739;52.198;20.908;2023-03-17T09:56:29;12.90;49.50
21163;DHT22;10739;52.198;20.908;2023-03-17T10:01:50;13.30;48.60
21163;DHT22;10739;52.198;20.908;2023-03-17T10:04:17;13.40;48.50
21163;DHT22;10739;52.198;20.908;2023-03-17T10:06:46;12.80;48.50
21163;DHT22;10739;52.198;20.908;2023-03-17T10:09:34;12.50;50.00
21163;DHT22;10739;52.198;20.908;2023-03-17T10:12:17;12.70;49.00
21163;DHT22;10739;52.198;20.908;2023-03-17T10:17:46;12.40;48.60
21163;DHT22;10739;52.198;20.908;2023-03-17T10:20:16;12.30;50.20
21163;DHT22;10739;52.198;20.908;2023-03-17T10:23:04;12.20;50.50
21163;DHT22;10739;52.198;20.908;2023-03-17T10:25:35;11.50;51.20
21163;DHT22;10739;52.198;20.908;2023-03-17T10:30:41;10.60;53.20
21163;DHT22;10739;52.198;20.908;2023-03-17T10:33:08;9.70;54.80
21163;DHT22;10739;52.198;20.908;2023-03-17T10:35:38;9.30;56.70
21163;DHT22;10739;52.198;20.908;2023-03-17T10:38:20;9.10;58.50
21163;DHT22;10739;52.198;20.908;2023-03-17T10:40:59;8.90;58.60
21163;DHT22;10739;52.198;20.908;2023-03-17T10:43:41;8.80;58.30
21163;DHT22;10739;52.198;20.908;2023-03-17T10:46:22;8.70;59.30
21163;DHT22;10739;52.198;20.908;2023-03-17T10:48:53;8.60;60.50
21163;DHT22;10739;52.198;20.908;2023-03-17T10:51:32;8.60;62.00
21163;DHT22;10739;52.198;20.908;2023-03-17T10:54:10;8.50;62.00
21163;DHT22;10739;52.198;20.908;2023-03-17T10:56:50;8.50;61.00
21163;DHT22;10739;52.198;20.908;2023-03-17T10:59:30;8.40;60.30
21163;DHT22;10739;52.198;20.908;2023-03-17T11:05:14;8.30;61.00
21163;DHT22;10739;52.198;20.908;2023-03-17T11:07:48;8.40;60.80
21163;DHT22;10739;52.198;20.908;2023-03-17T11:10:24;8.60;61.30
21163;DHT22;10739;52.198;20.908;2023-03-17T11:12:59;8.70;61.80
21163;DHT22;10739;52.198;20.908;2023-03-17T11:15:56;9.00;61.20
21163;DHT22;10739;52.198;20.908;2023-03-17T11:18:37;9.10;59.60
21163;DHT22;10739;52.198;20.908;2023-03-17T11:21:17;9.20;58.50
21163;DHT22;10739;52.198;20.908;2023-03-17T11:26:43;9.20;59.40
21163;DHT22;10739;52.198;20.908;2023-03-17T11:32:35;9.50;58.60
21163;DHT22;10739;52.198;20.908;2023-03-17T11:35:23;9.20;59.00
21163;DHT22;10739;52.198;20.908;2023-03-17T11:52:19;8.60;57.80
21163;DHT22;10739;52.198;20.908;2023-03-17T11:58:39;8.90;58.80
21163;DHT22;10739;52.198;20.908;2023-03-17T12:01:11;8.80;59.00
21163;DHT22;10739;52.198;20.908;2023-03-17T12:06:27;9.10;58.20
21163;DHT22;10739;52.198;20.908;2023-03-17T12:09:20;9.10;57.20
21163;DHT22;10739;52.198;20.908;2023-03-17T12:11:50;9.10;57.30
21163;DHT22;10739;52.198;20.908;2023-03-17T12:16:59;9.10;58.00
21163;DHT22;10739;52.198;20.908;2023-03-17T12:30:54;9.10;57.50
21163;DHT22;10739;52.198;20.908;2023-03-17T12:33:33;9.30;58.00
21163;DHT22;10739;52.198;20.908;2023-03-17T12:36:11;9.50;57.50
21163;DHT22;10739;52.198;20.908;2023-03-17T12:39:08;9.30;56.60
21163;DHT22;10739;52.198;20.908;2023-03-17T12:53:44;9.20;57.70
21163;DHT22;10739;52.198;20.908;2023-03-17T12:58:59;9.20;58.20
21163;DHT22;10739;52.198;20.908;2023-03-17T13:01:45;9.20;58.30
21163;DHT22;10739;52.198;20.908;2023-03-17T13:04:32;9.10;57.70
21163;DHT22;10739;52.198;20.908;2023-03-17T13:07:15;8.90;57.10
21163;DHT22;10739;52.198;20.908;2023-03-17T13:35:09;9.10;56.90
21163;DHT22;10739;52.198;20.908;2023-03-17T13:51:55;8.90;55.60
21163;DHT22;10739;52.198;20.908;2023-03-17T13:54:29;9.00;56.60
21163;DHT22;10739;52.198;20.908;2023-03-17T14:03:01;9.00;55.00
21163;DHT22;10739;52.198;20.908;2023-03-17T14:05:33;9.00;54.80
21163;DHT22;10739;52.198;20.908;2023-03-17T14:11:02;9.80;53.60
21163;DHT22;10739;52.198;20.908;2023-03-17T14:17:08;9.80;53.30
21163;DHT22;10739;52.198;20.908;2023-03-17T14:20:26;9.60;53.80
21163;DHT22;10739;52.198;20.908;2023-03-17T14:22:55;9.60;53.20
21163;DHT22;10739;52.198;20.908;2023-03-17T14:25:35;9.60;53.60
21163;DHT22;10739;52.198;20.908;2023-03-17T14:28:06;9.50;53.40
21163;DHT22;10739;52.198;20.908;2023-03-17T14:30:37;9.40;53.80
21163;DHT22;10739;52.198;20.908;2023-03-17T14:33:27;9.40;54.40
21163;DHT22;10739;52.198;20.908;2023-03-17T14:35:58;9.30;54.40
21163;DHT22;10739;52.198;20.908;2023-03-17T14:38:34;9.30;55.10
21163;DHT22;10739;52.198;20.908;2023-03-17T14:43:33;9.10;54.80
21163;DHT22;10739;52.198;20.908;2023-03-17T14:46:32;9.00;55.20
21163;DHT22;10739;52.198;20.908;2023-03-17T14:49:17;9.00;55.70
21163;DHT22;10739;52.198;20.908;2023-03-17T14:51:49;9.00;56.20
21163;DHT22;10739;52.198;20.908;2023-03-17T14:54:24;9.00;56.40
21163;DHT22;10739;52.198;20.908;2023-03-17T14:57:05;9.00;56.90
21163;DHT22;10739;52.198;20.908;2023-03-17T14:59:39;8.90;56.10
21163;DHT22;10739;52.198;20.908;2023-03-17T15:05:22;8.80;57.50
21163;DHT22;10739;52.198;20.908;2023-03-17T15:07:55;8.70;57.90
21163;DHT22;10739;52.198;20.908;2023-03-17T15:10:25;8.60;58.70
21163;DHT22;10739;52.198;20.908;2023-03-17T15:13:03;8.60;59.40
21163;DHT22;10739;52.198;20.908;2023-03-17T15:15:33;8.60;58.90
21163;DHT22;10739;52.198;20.908;2023-03-17T15:18:06;8.50;59.10
21163;DHT22;10739;52.198;20.908;2023-03-17T15:20:37;8.60;59.60
21163;DHT22;10739;52.198;20.908;2023-03-17T15:23:18;8.60;59.70
21163;DHT22;10739;52.198;20.908;2023-03-17T15:25:48;8.60;60.00
21163;DHT22;10739;52.198;20.908;2023-03-17T15:28:25;8.70;60.10
21163;DHT22;10739;52.198;20.908;2023-03-17T15:30:57;8.60;58.80
21163;DHT22;10739;52.198;20.908;2023-03-17T15:33:37;8.50;58.90
21163;DHT22;10739;52.198;20.908;2023-03-17T15:36:04;8.40;59.10
21163;DHT22;10739;52.198;20.908;2023-03-17T15:38:32;8.40;59.90
21163;DHT22;10739;52.198;20.908;2023-03-17T15:41:01;8.40;59.90
21163;DHT22;10739;52.198;20.908;2023-03-17T15:43:27;8.40;59.00
21163;DHT22;10739;52.198;20.908;2023-03-17T15:45:59;8.40;59.50
21163;DHT22;10739;52.198;20.908;2023-03-17T15:48:30;8.40;60.70
21163;DHT22;10739;52.198;20.908;2023-03-17T15:50:59;8.40;60.90
21163;DHT22;10739;52.198;20.908;2023-03-17T15:53:27;8.30;61.30
21163;DHT22;10739;52.198;20.908;2023-03-17T15:55:55;8.30;61.70
21163;DHT22;10739;52.198;20.908;2023-03-17T15:58:21;8.30;61.30
21163;DHT22;10739;52.198;20.908;2023-03-17T16:00:51;8.20;60.80
21163;DHT22;10739;52.198;20.908;2023-03-17T16:03:32;8.20;61.70
21163;DHT22;10739;52.198;20.908;2023-03-17T16:06:01;8.10;61.30
21163;DHT22;10739;52.198;20.908;2023-03-17T16:08:32;8.10;62.60
21163;DHT22;10739;52.198;20.908;2023-03-17T16:10:58;8.00;62.50
21163;DHT22;10739;52.198;20.908;2023-03-17T16:13:25;8.00;62.20
21163;DHT22;10739;52.198;20.908;2023-03-17T16:15:55;7.90;63.40
21163;DHT22;10739;52.198;20.908;2023-03-17T16:18:31;7.90;63.40
21163;DHT22;10739;52.198;20.908;2023-03-17T16:21:00;7.80;63.70
21163;DHT22;10739;52.198;20.908;2023-03-17T16:23:30;7.70;63.90
21163;DHT22;10739;52.198;20.908;2023-03-17T16:25:59;7.70;64.00
21163;DHT22;10739;52.198;20.908;2023-03-17T16:28:28;7.60;64.10
21163;DHT22;10739;52.198;20.908;2023-03-17T16:30:58;7.50;65.50
21163;DHT22;10739;52.198;20.908;2023-03-17T16:33:32;7.50;65.80
21163;DHT22;10739;52.198;20.908;2023-03-17T16:36:03;7.40;66.40
21163;DHT22;10739;52.198;20.908;2023-03-17T16:38:31;7.40;67.20
21163;DHT22;10739;52.198;20.908;2023-03-17T16:41:00;7.20;67.30
21163;DHT22;10739;52.198;20.908;2023-03-17T16:43:35;7.20;67.90
21163;DHT22;10739;52.198;20.908;2023-03-17T16:46:04;7.10;67.90
21163;DHT22;10739;52.198;20.908;2023-03-17T16:48:31;7.10;69.10
21163;DHT22;10739;52.198;20.908;2023-03-17T16:50:58;7.10;69.70
21163;DHT22;10739;52.198;20.908;2023-03-17T16:53:24;7.00;69.50
21163;DHT22;10739;52.198;20.908;2023-03-17T16:55:53;6.90;71.10
21163;DHT22;10739;52.198;20.908;2023-03-17T17:01:08;6.80;71.30
21163;DHT22;10739;52.198;20.908;2023-03-17T17:03:40;6.80;72.50
21163;DHT22;10739;52.198;20.908;2023-03-17T17:06:09;6.80;71.90
21163;DHT22;10739;52.198;20.908;2023-03-17T17:08:36;6.70;72.40
21163;DHT22;10739;52.198;20.908;2023-03-17T17:11:03;6.70;72.60
21163;DHT22;10739;52.198;20.908;2023-03-17T17:13:29;6.60;73.60
21163;DHT22;10739;52.198;20.908;2023-03-17T17:15:55;6.50;73.80
21163;DHT22;10739;52.198;20.908;2023-03-17T17:18:22;6.50;73.80
21163;DHT22;10739;52.198;20.908;2023-03-17T17:20:51;6.40;74.30
21163;DHT22;10739;52.198;20.908;2023-03-17T17:23:21;6.40;74.00
21163;DHT22;10739;52.198;20.908;2023-03-17T17:25:51;6.40;74.50
21163;DHT22;10739;52.198;20.908;2023-03-17T17:28:21;6.40;73.40
21163;DHT22;10739;52.198;20.908;2023-03-17T17:30:49;6.40;73.60
21163;DHT22;10739;52.198;20.908;2023-03-17T17:33:17;6.30;72.80
21163;DHT22;10739;52.198;20.908;2023-03-17T17:35:45;6.30;73.00
21163;DHT22;10739;52.198;20.908;2023-03-17T17:38:31;6.30;73.40
21163;DHT22;10739;52.198;20.908;2023-03-17T17:40:59;6.30;73.60
21163;DHT22;10739;52.198;20.908;2023-03-17T17:43:30;6.20;73.30
21163;DHT22;10739;52.198;20.908;2023-03-17T17:45:57;6.30;74.10
21163;DHT22;10739;52.198;20.908;2023-03-17T17:48:25;6.20;74.70
21163;DHT22;10739;52.198;20.908;2023-03-17T17:50:54;6.20;76.50
21163;DHT22;10739;52.198;20.908;2023-03-17T17:53:21;6.20;76.60
21163;DHT22;10739;52.198;20.908;2023-03-17T17:55:48;6.20;78.30
21163;DHT22;10739;52.198;20.908;2023-03-17T17:58:21;6.10;80.50
21163;DHT22;10739;52.198;20.908;2023-03-17T18:00:50;6.10;79.70
21163;DHT22;10739;52.198;20.908;2023-03-17T18:03:18;6.10;80.70
21163;DHT22;10739;52.198;20.908;2023-03-17T18:05:50;6.00;80.90